windsock image

Welcome to Bigfield Strip.

anemometer image
     

 Help for dials.  
 
Local Met:

Wind:   
10 Min average:  
323 ° / 3.2 kts (2.6)
340° / 1.0

Temperature:  
4.4°C C
Dew Point:  
3.3°C C
QNH:  
Trend:  
994.3 mb mb
+0.9mb/hr
BigField Strip. This image updates approximately every minute, it can have a two minute delay.  
 

Humidity:  
92 %
Sunrise:   07:28z
Sunset:   17:07z
Updated:  
  UTC
 
   More met info, trends, radar, history etc. available here   

LUTON Metar   EGGW 100820Z AUTO 28012KT 9999 BKN008 BKN019 04/03 Q0993
 
  TAF   2016/02/10 06:15 TAF EGGW 100500Z 1006/1106 28012KT 9999 SCT018 TEMPO 1006/1012 -SHRA BKN010 PROB30 TEMPO 1006/1009 7000 SHRA
 
BENSON Metar   EGUB 100750Z 26010KT 9999 -SHRA SCT027 BKN035 05/02 Q0994 BLU TEMPO BKN018 WHT
 
  TAF   2016/02/10 09:06 TAF EGUB 100730Z 1009/1018 26010KT 9999 BKN040 TEMPO 1009/1013 SCT018 PROB30 TEMPO 1009/1011 6000 SHRA SCT014
 
Big Field view 1 icon   Big Field view 2 icon   Big Field view 3 icon   Chart AL3a in PDF icon   Chart AL3a in Word icon

WARNING:
This information is provided by the Airstrip unofficial weather station, DO NOT depend on the data provided here for any purpose.
This page is updated for latest Metars & TAF's every 5 minutes. Refresh the browser to check for the lastest.
Page designed for a minimum browser size of 1024x768.
© Copyright 2016 BigField Strip. This page auto generated 08:31 UTC - 10/02/2016   Contact Us
Valid HTML 4.01 Transitional     Windows uptime: 2 Days 5 Hours 59 Minutes 7 Seconds    WD started: 02:38 08/02/16    Free memory: 1544MB     Valid CSS!